createdAt,value
2023-02-07T00:00:18.619Z,102212.16
2023-02-07T00:01:24.336Z,102204.88
2023-02-07T00:02:27.795Z,102202.69
2023-02-07T00:03:31.976Z,102208.59
2023-02-07T00:04:34.867Z,102207.78
2023-02-07T00:05:39.629Z,102211.13
2023-02-07T00:06:42.710Z,102202.06
2023-02-07T00:07:46.576Z,102198.56
2023-02-07T00:08:50.002Z,102201.28
2023-02-07T00:09:53.603Z,102195.63
2023-02-07T00:10:57.955Z,102201.34
2023-02-07T00:12:01.442Z,102206.94
2023-02-07T00:13:06.261Z,102193.63
2023-02-07T00:14:12.678Z,102197.41
2023-02-07T00:15:15.385Z,102199.78
2023-02-07T00:16:19.660Z,102206.84
2023-02-07T00:17:22.087Z,102207.47
2023-02-07T00:18:25.809Z,102203.09
2023-02-07T00:19:28.535Z,102208.16
2023-02-07T00:20:32.128Z,102209.41
2023-02-07T00:21:34.690Z,102205.72
2023-02-07T00:22:38.700Z,102200.94
2023-02-07T00:23:41.784Z,102193.56
2023-02-07T00:24:45.508Z,102200.94
2023-02-07T00:25:48.198Z,102213.97
2023-02-07T00:26:53.681Z,102213.25
2023-02-07T00:27:56.833Z,102208.59
2023-02-07T00:29:00.335Z,102216.34
2023-02-07T00:30:03.205Z,102209.75
2023-02-07T00:31:10.049Z,102206.00
2023-02-07T00:32:14.238Z,102211.47
2023-02-07T00:33:17.399Z,102213.84
2023-02-07T00:34:21.171Z,102211.63
2023-02-07T00:35:23.925Z,102218.59
2023-02-07T00:36:30.268Z,102210.78
2023-02-07T00:37:32.944Z,102209.16
2023-02-07T00:38:36.854Z,102218.75
2023-02-07T00:39:39.837Z,102210.41
2023-02-07T00:40:43.219Z,102219.41
2023-02-07T00:41:46.383Z,102219.50
2023-02-07T00:42:51.737Z,102221.50
2023-02-07T00:43:54.663Z,102227.50
2023-02-07T00:44:58.137Z,102224.53
2023-02-07T00:46:02.025Z,102220.31
2023-02-07T00:47:05.783Z,102228.56
2023-02-07T00:48:08.758Z,102219.56
2023-02-07T00:49:13.158Z,102222.34
2023-02-07T00:50:15.763Z,102224.69
2023-02-07T00:51:20.134Z,102222.47
2023-02-07T00:52:22.764Z,102212.16
2023-02-07T00:53:26.808Z,102213.97
2023-02-07T00:54:29.412Z,102206.69
2023-02-07T00:55:33.325Z,102211.09
2023-02-07T00:56:35.840Z,102212.09
2023-02-07T00:57:39.658Z,102205.72
2023-02-07T00:58:43.728Z,102209.47
2023-02-07T00:59:47.574Z,102201.91
2023-02-07T01:00:51.117Z,102194.75
2023-02-07T01:01:55.803Z,102208.88
2023-02-07T01:02:58.731Z,102198.94
2023-02-07T01:04:02.269Z,102208.16
2023-02-07T01:05:05.194Z,102199.97
2023-02-07T01:06:10.664Z,102199.13
2023-02-07T01:07:13.328Z,102199.38
2023-02-07T01:08:17.275Z,102202.53
2023-02-07T01:09:19.917Z,102194.72
2023-02-07T01:10:24.834Z,102197.31
2023-02-07T01:11:28.460Z,102205.31
2023-02-07T01:12:32.315Z,102205.41
2023-02-07T01:13:35.459Z,102202.09
2023-02-07T01:14:40.766Z,102200.81
2023-02-07T01:15:45.553Z,102202.69
2023-02-07T01:16:50.479Z,102198.94
2023-02-07T01:17:53.362Z,102199.13
2023-02-07T01:18:58.142Z,102200.72
2023-02-07T01:20:01.334Z,102190.41
2023-02-07T01:21:16.112Z,102190.22
2023-02-07T01:22:19.728Z,102198.41
2023-02-07T01:23:22.442Z,102202.53
2023-02-07T01:24:26.266Z,102198.03
2023-02-07T01:25:28.821Z,102194.13
2023-02-07T01:26:32.361Z,102195.75
2023-02-07T01:27:35.587Z,102191.59
2023-02-07T01:28:39.215Z,102200.31
2023-02-07T01:29:43.451Z,102199.88
2023-02-07T01:30:47.326Z,102196.47
2023-02-07T01:31:50.291Z,102202.09
2023-02-07T01:32:54.379Z,102211.63
2023-02-07T01:33:58.638Z,102199.50
2023-02-07T01:35:02.329Z,102194.91
2023-02-07T01:36:08.783Z,102203.72
2023-02-07T01:37:12.880Z,102194.47
2023-02-07T01:38:16.596Z,102200.66
2023-02-07T01:39:20.640Z,102194.75
2023-02-07T01:40:23.722Z,102194.75
2023-02-07T01:41:28.942Z,102197.97
2023-02-07T01:42:32.329Z,102197.28
2023-02-07T01:43:36.940Z,102199.22
2023-02-07T01:45:08.738Z,102198.94
2023-02-07T01:46:11.381Z,102196.47
2023-02-07T01:47:20.158Z,102187.31
2023-02-07T01:48:25.647Z,102184.31
2023-02-07T01:49:34.315Z,102197.16
2023-02-07T01:50:38.016Z,102190.44
2023-02-07T01:51:45.615Z,102197.28
2023-02-07T01:52:49.119Z,102193.66
2023-02-07T01:53:55.251Z,102189.63
2023-02-07T01:55:03.009Z,102184.63
2023-02-07T01:56:09.662Z,102186.03
2023-02-07T01:57:17.300Z,102187.50
2023-02-07T01:58:22.703Z,102186.75
2023-02-07T01:59:27.216Z,102182.72
2023-02-07T02:00:32.635Z,102192.41
2023-02-07T02:01:36.446Z,102186.31
2023-02-07T02:02:40.690Z,102176.13
2023-02-07T02:03:47.637Z,102178.72
2023-02-07T02:04:55.206Z,102174.34
2023-02-07T02:05:59.104Z,102174.19
2023-02-07T02:07:02.693Z,102173.56
2023-02-07T02:08:05.710Z,102171.94
2023-02-07T02:09:11.720Z,102169.88
2023-02-07T02:10:16.725Z,102170.25
2023-02-07T02:11:37.477Z,102177.97
2023-02-07T02:13:09.648Z,102170.00
2023-02-07T02:14:23.018Z,102173.84
2023-02-07T02:15:37.824Z,102184.44
2023-02-07T02:16:49.294Z,102165.72
2023-02-07T02:18:05.799Z,102163.00
2023-02-07T02:19:55.159Z,102179.88
2023-02-07T02:21:38.268Z,102162.63
2023-02-07T02:23:18.496Z,102155.78
2023-02-07T02:24:45.721Z,102159.84
2023-02-07T02:26:28.173Z,102164.13
2023-02-07T02:27:51.031Z,102163.50
2023-02-07T02:29:29.166Z,102163.25
2023-02-07T02:31:02.042Z,102158.41
2023-02-07T02:32:24.528Z,102157.03
2023-02-07T02:33:45.412Z,102156.44
2023-02-07T02:34:54.428Z,102154.38
2023-02-07T02:36:10.380Z,102148.63
2023-02-07T02:37:21.793Z,102156.50
2023-02-07T02:38:33.218Z,102160.38
2023-02-07T02:39:43.241Z,102158.28
2023-02-07T02:40:54.115Z,102153.03
2023-02-07T02:42:05.652Z,102165.66
2023-02-07T02:43:15.675Z,102160.09
2023-02-07T02:44:24.571Z,102153.81
2023-02-07T02:45:32.284Z,102154.78
2023-02-07T02:46:39.086Z,102156.13
2023-02-07T02:47:46.091Z,102165.41
2023-02-07T02:48:53.279Z,102162.72
2023-02-07T02:49:56.958Z,102166.47
2023-02-07T02:51:01.381Z,102152.88
2023-02-07T02:52:04.597Z,102153.25
2023-02-07T02:53:08.296Z,102162.78
2023-02-07T02:54:30.640Z,102153.69
2023-02-07T02:55:55.205Z,102158.66
2023-02-07T02:57:14.571Z,102157.78
2023-02-07T02:58:28.815Z,102157.13
2023-02-07T02:59:50.488Z,102156.97
2023-02-07T03:01:06.974Z,102146.69
2023-02-07T03:02:24.009Z,102146.91
2023-02-07T03:04:02.837Z,102140.88
2023-02-07T03:05:20.508Z,102140.63
2023-02-07T03:06:39.213Z,102138.91
2023-02-07T03:07:57.197Z,102138.09
2023-02-07T03:09:12.549Z,102132.97
2023-02-07T03:10:27.181Z,102132.72
2023-02-07T03:11:34.342Z,102124.09
2023-02-07T03:12:45.989Z,102120.41
2023-02-07T03:14:00.642Z,102127.22
2023-02-07T03:15:09.002Z,102122.28
2023-02-07T03:16:15.901Z,102123.75
2023-02-07T03:17:24.518Z,102109.66
2023-02-07T03:18:31.802Z,102112.56
2023-02-07T03:19:40.508Z,102116.75
2023-02-07T03:20:48.206Z,102118.19
2023-02-07T03:21:55.491Z,102105.78
2023-02-07T03:23:00.528Z,102108.22
2023-02-07T03:24:13.569Z,102113.44
2023-02-07T03:25:18.080Z,102106.59
2023-02-07T03:26:24.831Z,102113.44
2023-02-07T03:27:30.074Z,102114.66
2023-02-07T03:28:35.201Z,102103.81
2023-02-07T03:29:40.856Z,102108.03
2023-02-07T03:30:50.675Z,102106.31
2023-02-07T03:31:58.444Z,102100.56
2023-02-07T03:33:10.574Z,102090.25
2023-02-07T03:34:17.866Z,102106.88
2023-02-07T03:35:26.803Z,102092.88
2023-02-07T03:36:34.439Z,102103.53
2023-02-07T03:37:40.708Z,102098.06
2023-02-07T03:38:43.508Z,102097.56
2023-02-07T03:39:47.458Z,102101.16
2023-02-07T03:40:54.082Z,102093.56
2023-02-07T03:42:01.090Z,102090.06
2023-02-07T03:43:07.997Z,102092.75
2023-02-07T03:44:15.040Z,102096.34
2023-02-07T03:45:20.366Z,102096.47
2023-02-07T03:46:24.852Z,102088.75
2023-02-07T03:47:28.048Z,102096.84
2023-02-07T03:48:31.601Z,102089.59
2023-02-07T03:49:34.010Z,102088.59
2023-02-07T03:50:38.004Z,102081.03
2023-02-07T03:51:42.217Z,102089.22
2023-02-07T03:52:46.270Z,102094.00
2023-02-07T03:53:49.129Z,102083.81
2023-02-07T03:54:53.277Z,102075.38
2023-02-07T03:55:56.224Z,102089.03
2023-02-07T03:56:59.777Z,102088.66
2023-02-07T03:58:02.471Z,102091.81
2023-02-07T03:59:07.251Z,102079.00
2023-02-07T04:00:12.268Z,102088.91
2023-02-07T04:01:16.548Z,102080.13
2023-02-07T04:02:19.441Z,102084.34
2023-02-07T04:03:23.253Z,102086.69
2023-02-07T04:04:26.029Z,102092.72
2023-02-07T04:05:30.492Z,102099.34
2023-02-07T04:06:33.763Z,102091.44
2023-02-07T04:07:39.567Z,102096.47
2023-02-07T04:08:43.158Z,102102.56
2023-02-07T04:09:46.818Z,102096.56
2023-02-07T04:10:58.350Z,102096.91
2023-02-07T04:12:02.018Z,102089.72
2023-02-07T04:13:05.799Z,102095.09
2023-02-07T04:14:08.732Z,102093.56
2023-02-07T04:15:13.976Z,102089.59
2023-02-07T04:16:17.186Z,102086.34
2023-02-07T04:17:21.031Z,102097.78
2023-02-07T04:18:23.836Z,102095.19
2023-02-07T04:19:27.753Z,102094.63
2023-02-07T04:20:30.526Z,102095.44
2023-02-07T04:21:34.594Z,102094.63
2023-02-07T04:22:39.811Z,102090.41
2023-02-07T04:23:42.455Z,102089.78
2023-02-07T04:24:46.278Z,102084.38
2023-02-07T04:25:49.615Z,102091.78
2023-02-07T04:26:53.354Z,102088.91
2023-02-07T04:27:55.863Z,102096.56
2023-02-07T04:28:59.518Z,102090.78
2023-02-07T04:30:02.195Z,102104.38
2023-02-07T04:31:06.591Z,102090.41
2023-02-07T04:32:09.063Z,102102.78
2023-02-07T04:33:13.112Z,102107.78
2023-02-07T04:34:15.803Z,102111.06
2023-02-07T04:35:19.685Z,102092.84
2023-02-07T04:36:24.414Z,102104.03
2023-02-07T04:37:27.025Z,102102.56
2023-02-07T04:38:32.558Z,102100.81
2023-02-07T04:39:35.644Z,102116.44
2023-02-07T04:40:40.919Z,102116.63
2023-02-07T04:41:44.993Z,102110.06
2023-02-07T04:42:47.801Z,102108.00
2023-02-07T04:43:51.989Z,102104.25
2023-02-07T04:44:54.733Z,102102.19
2023-02-07T04:45:58.469Z,102110.81
2023-02-07T04:47:01.022Z,102111.66
2023-02-07T04:48:04.972Z,102106.63
2023-02-07T04:49:07.974Z,102094.63
2023-02-07T04:50:11.847Z,102106.16
2023-02-07T04:51:14.716Z,102109.38
2023-02-07T04:52:18.829Z,102115.09
2023-02-07T04:53:21.860Z,102112.06
2023-02-07T04:54:27.076Z,102106.03
2023-02-07T04:55:30.249Z,102107.03
2023-02-07T04:56:36.215Z,102107.44
2023-02-07T04:57:40.006Z,102110.31
2023-02-07T04:58:42.727Z,102108.63
2023-02-07T04:59:46.576Z,102107.44
2023-02-07T05:00:49.560Z,102104.28
2023-02-07T05:01:53.002Z,102089.47
2023-02-07T05:02:55.944Z,102100.13
2023-02-07T05:03:59.525Z,102086.69
2023-02-07T05:05:02.225Z,102105.91
2023-02-07T05:06:06.237Z,102109.72
2023-02-07T05:07:08.815Z,102112.88
2023-02-07T05:08:13.373Z,102112.06
2023-02-07T05:09:16.937Z,102093.00
2023-02-07T05:10:21.134Z,102105.84
2023-02-07T05:11:24.984Z,102103.84
2023-02-07T05:12:27.689Z,102101.06
2023-02-07T05:13:31.361Z,102106.47
2023-02-07T05:14:33.953Z,102088.88
2023-02-07T05:15:37.899Z,102096.22
2023-02-07T05:16:40.596Z,102108.47
2023-02-07T05:17:44.650Z,102101.34
2023-02-07T05:18:48.291Z,102109.31
2023-02-07T05:19:51.738Z,102110.06
2023-02-07T05:20:55.859Z,102102.88
2023-02-07T05:21:58.458Z,102103.47
2023-02-07T05:23:02.280Z,102096.22
2023-02-07T05:24:06.089Z,102100.69
2023-02-07T05:25:09.899Z,102102.66
2023-02-07T05:26:14.610Z,102103.00
2023-02-07T05:27:18.303Z,102104.63
2023-02-07T05:28:22.298Z,102107.56
2023-02-07T05:29:24.976Z,102107.16
2023-02-07T05:30:28.985Z,102111.94
2023-02-07T05:31:46.348Z,102100.69
2023-02-07T05:33:04.202Z,102092.03
2023-02-07T05:34:08.061Z,102098.13
2023-02-07T05:35:10.576Z,102093.31
2023-02-07T05:36:14.112Z,102100.75
2023-02-07T05:37:16.642Z,102099.75
2023-02-07T05:38:21.976Z,102090.59
2023-02-07T05:39:24.845Z,102099.34
2023-02-07T05:40:28.882Z,102086.75
2023-02-07T05:41:33.043Z,102097.34
2023-02-07T05:42:36.792Z,102094.56
2023-02-07T05:43:40.951Z,102084.91
2023-02-07T05:44:43.559Z,102098.81
2023-02-07T05:45:47.277Z,102092.63
2023-02-07T05:46:52.354Z,102091.94
2023-02-07T05:47:56.596Z,102101.53
2023-02-07T05:48:59.029Z,102098.38
2023-02-07T05:50:02.577Z,102091.38
2023-02-07T05:51:05.506Z,102097.56
2023-02-07T05:52:09.115Z,102100.81
2023-02-07T05:53:13.098Z,102096.59
2023-02-07T05:54:15.676Z,102095.59
2023-02-07T05:55:19.648Z,102092.03
2023-02-07T05:56:22.001Z,102099.19
2023-02-07T05:57:26.921Z,102098.13
2023-02-07T05:58:30.407Z,102093.34
2023-02-07T05:59:32.768Z,102098.38
2023-02-07T06:00:37.357Z,102100.06
2023-02-07T06:01:41.005Z,102105.91
2023-02-07T06:02:44.947Z,102099.03
2023-02-07T06:03:47.518Z,102106.47
2023-02-07T06:04:51.107Z,102099.03
2023-02-07T06:05:55.040Z,102103.59
2023-02-07T06:06:57.726Z,102106.47
2023-02-07T06:08:01.455Z,102108.41
2023-02-07T06:09:05.050Z,102113.84
2023-02-07T06:10:09.547Z,102111.50
2023-02-07T06:11:12.413Z,102106.84
2023-02-07T06:12:15.944Z,102100.19
2023-02-07T06:13:20.969Z,102105.50
2023-02-07T06:14:24.318Z,102101.72
2023-02-07T06:15:28.048Z,102114.66
2023-02-07T06:16:30.724Z,102110.41
2023-02-07T06:17:34.878Z,102111.84
2023-02-07T06:18:37.520Z,102108.97
2023-02-07T06:19:41.156Z,102103.34
2023-02-07T06:20:43.717Z,102109.34
2023-02-07T06:21:47.635Z,102106.31
2023-02-07T06:22:52.535Z,102114.38
2023-02-07T06:23:55.592Z,102107.72
2023-02-07T06:24:59.364Z,102104.66
2023-02-07T06:26:01.965Z,102114.56
2023-02-07T06:27:08.067Z,102118.16
2023-02-07T06:28:12.412Z,102112.75
2023-02-07T06:29:16.687Z,102120.03
2023-02-07T06:30:21.048Z,102114.44
2023-02-07T06:31:24.176Z,102117.59
2023-02-07T06:32:28.187Z,102115.81
2023-02-07T06:33:30.734Z,102115.53
2023-02-07T06:34:34.681Z,102115.19
2023-02-07T06:35:37.702Z,102117.00
2023-02-07T06:36:41.715Z,102117.34
2023-02-07T06:37:44.687Z,102116.28
2023-02-07T06:38:49.557Z,102129.75
2023-02-07T06:39:53.396Z,102111.91
2023-02-07T06:40:55.905Z,102118.69
2023-02-07T06:41:59.519Z,102129.47
2023-02-07T06:43:02.033Z,102120.53
2023-02-07T06:44:06.691Z,102113.44
2023-02-07T06:45:11.074Z,102114.78
2023-02-07T06:46:14.898Z,102115.31
2023-02-07T06:47:19.931Z,102118.19
2023-02-07T06:48:23.555Z,102116.28
2023-02-07T06:49:27.316Z,102124.22
2023-02-07T06:50:30.085Z,102116.13
2023-02-07T06:51:33.842Z,102124.19
2023-02-07T06:52:36.453Z,102119.34
2023-02-07T06:53:40.430Z,102118.00
2023-02-07T06:54:44.000Z,102119.16
2023-02-07T06:55:46.515Z,102123.66
2023-02-07T06:56:50.175Z,102110.09
2023-02-07T06:57:53.588Z,102113.63
2023-02-07T06:58:55.997Z,102116.06
2023-02-07T06:59:59.959Z,102107.44
2023-02-07T07:01:05.151Z,102113.72
2023-02-07T07:02:08.849Z,102111.28
2023-02-07T07:03:15.699Z,102107.16
2023-02-07T07:04:18.826Z,102122.41
2023-02-07T07:05:22.487Z,102110.63
2023-02-07T07:06:26.526Z,102119.16
2023-02-07T07:07:30.521Z,102108.22
2023-02-07T07:08:34.460Z,102110.81
2023-02-07T07:09:38.289Z,102112.38
2023-02-07T07:10:42.359Z,102115.84
2023-02-07T07:11:45.060Z,102121.16
2023-02-07T07:12:49.383Z,102117.19
2023-02-07T07:13:51.852Z,102112.97
2023-02-07T07:14:55.451Z,102117.75
2023-02-07T07:15:58.531Z,102108.94
2023-02-07T07:17:03.912Z,102116.38
2023-02-07T07:18:06.923Z,102099.78
2023-02-07T07:19:10.504Z,102107.66
2023-02-07T07:20:14.885Z,102108.34
2023-02-07T07:21:18.865Z,102113.97
2023-02-07T07:22:22.256Z,102106.59
2023-02-07T07:23:24.910Z,102114.34
2023-02-07T07:24:28.708Z,102110.25
2023-02-07T07:25:32.637Z,102111.63
2023-02-07T07:26:48.406Z,102106.97
2023-02-07T07:27:53.924Z,102120.59
2023-02-07T07:29:00.322Z,102121.84
2023-02-07T07:30:02.994Z,102111.09
2023-02-07T07:31:08.944Z,102114.56
2023-02-07T07:33:39.969Z,102119.09
2023-02-07T07:34:44.591Z,102114.81
2023-02-07T07:35:47.236Z,102112.84
2023-02-07T07:36:51.977Z,102125.66
2023-02-07T07:37:55.521Z,102091.50
2023-02-07T07:38:59.346Z,102110.28
2023-02-07T07:40:02.477Z,102105.63
2023-02-07T07:41:06.716Z,102109.09
2023-02-07T07:42:10.420Z,102103.72
2023-02-07T07:43:12.890Z,102105.50
2023-02-07T07:44:16.724Z,102099.88
2023-02-07T07:45:20.127Z,102098.19
2023-02-07T07:46:24.184Z,102097.44
2023-02-07T07:47:29.395Z,102095.81
2023-02-07T07:48:33.030Z,102102.63
2023-02-07T07:49:36.789Z,102096.06
2023-02-07T07:50:40.654Z,102099.47
2023-02-07T07:51:44.613Z,102101.53
2023-02-07T07:52:48.920Z,102097.44
2023-02-07T07:53:52.335Z,102092.78
2023-02-07T07:54:55.828Z,102092.78
2023-02-07T07:55:59.875Z,102089.88
2023-02-07T07:57:03.738Z,102085.66
2023-02-07T07:58:07.387Z,102094.56
2023-02-07T07:59:15.997Z,102095.47
2023-02-07T08:00:27.389Z,102096.72
2023-02-07T08:01:31.032Z,102111.56
2023-02-07T08:02:36.412Z,102098.38
2023-02-07T08:03:39.955Z,102102.66
2023-02-07T08:04:43.539Z,102106.16
2023-02-07T08:05:48.226Z,102106.88
2023-02-07T08:06:52.303Z,102112.78
2023-02-07T08:07:55.880Z,102103.59
2023-02-07T08:09:00.101Z,102117.47
2023-02-07T08:10:02.674Z,102109.78
2023-02-07T08:11:09.167Z,102114.94
2023-02-07T08:12:12.860Z,102106.75
2023-02-07T08:13:17.311Z,102106.38
2023-02-07T08:14:19.704Z,102119.75
2023-02-07T08:15:23.448Z,102108.00
2023-02-07T08:16:26.979Z,102109.91
2023-02-07T08:17:30.909Z,102106.69
2023-02-07T08:18:36.623Z,102110.56
2023-02-07T08:19:40.365Z,102109.75
2023-02-07T08:20:44.478Z,102108.47
2023-02-07T08:21:48.201Z,102101.59
2023-02-07T08:22:52.569Z,102107.78
2023-02-07T08:23:56.325Z,102107.59
2023-02-07T08:24:58.703Z,102101.03
2023-02-07T08:26:02.836Z,102100.31
2023-02-07T08:27:07.083Z,102106.00
2023-02-07T08:28:12.048Z,102113.00
2023-02-07T08:29:14.990Z,102095.31
2023-02-07T08:30:19.514Z,102104.75
2023-02-07T08:31:23.233Z,102115.22
2023-02-07T08:32:28.719Z,102102.03
2023-02-07T08:33:32.427Z,102113.81
2023-02-07T08:34:38.642Z,102112.19
2023-02-07T08:35:42.532Z,102127.44
2023-02-07T08:36:46.609Z,102112.06
2023-02-07T08:37:50.287Z,102115.66
2023-02-07T08:38:54.678Z,102114.28
2023-02-07T08:39:58.391Z,102118.19
2023-02-07T08:41:02.731Z,102120.75
2023-02-07T08:42:08.352Z,102115.53
2023-02-07T08:43:12.994Z,102114.19
2023-02-07T08:44:17.055Z,102118.06
2023-02-07T08:45:20.949Z,102113.94
2023-02-07T08:46:25.510Z,102131.38
2023-02-07T08:47:29.314Z,102120.31
2023-02-07T08:48:32.029Z,102124.00
2023-02-07T08:49:37.781Z,102121.44
2023-02-07T08:50:41.906Z,102130.00
2023-02-07T08:51:45.763Z,102130.88
2023-02-07T08:52:49.376Z,102130.94
2023-02-07T08:53:53.848Z,102127.19
2023-02-07T08:54:57.396Z,102131.09
2023-02-07T08:56:01.314Z,102143.94
2023-02-07T08:57:05.407Z,102140.16
2023-02-07T08:58:09.360Z,102150.72
2023-02-07T08:59:13.394Z,102130.28
2023-02-07T09:00:18.151Z,102145.38
2023-02-07T09:01:21.896Z,102149.66
2023-02-07T09:02:25.688Z,102141.22
2023-02-07T09:03:30.064Z,102134.53
2023-02-07T09:04:33.991Z,102147.97
2023-02-07T09:05:38.953Z,102144.03
2023-02-07T09:06:42.540Z,102147.88
2023-02-07T09:07:46.286Z,102138.59
2023-02-07T09:08:50.141Z,102140.88
2023-02-07T09:09:54.236Z,102148.16
2023-02-07T09:10:56.917Z,102148.16
2023-02-07T09:12:00.600Z,102154.00
2023-02-07T09:13:03.634Z,102152.28
2023-02-07T09:14:07.261Z,102144.84
2023-02-07T09:15:11.330Z,102155.53
2023-02-07T09:16:16.067Z,102147.19
2023-02-07T09:17:19.513Z,102146.53
2023-02-07T09:18:23.815Z,102139.25
2023-02-07T09:19:27.963Z,102143.47
2023-02-07T09:20:30.876Z,102137.28
2023-02-07T09:21:37.648Z,102151.84
2023-02-07T09:22:55.027Z,102144.56
2023-02-07T09:23:59.632Z,102142.41
2023-02-07T09:25:04.066Z,102141.31
2023-02-07T09:26:09.324Z,102134.06
2023-02-07T09:27:13.096Z,102140.44
2023-02-07T09:28:15.850Z,102140.59
2023-02-07T09:29:20.929Z,102134.06
2023-02-07T09:30:24.784Z,102130.72
2023-02-07T09:31:28.674Z,102133.44
2023-02-07T09:32:31.204Z,102123.13
2023-02-07T09:33:34.634Z,102131.91
2023-02-07T09:34:38.170Z,102129.22
2023-02-07T09:35:44.458Z,102128.78
2023-02-07T09:36:52.112Z,102134.22
2023-02-07T09:37:57.103Z,102127.50
2023-02-07T09:39:01.484Z,102138.00
2023-02-07T09:40:06.653Z,102131.97
2023-02-07T09:41:17.821Z,102133.06
2023-02-07T09:42:28.865Z,102132.34
2023-02-07T09:43:39.236Z,102128.41
2023-02-07T09:44:55.228Z,102134.75
2023-02-07T09:46:05.423Z,102141.03
2023-02-07T09:47:14.961Z,102132.50
2023-02-07T09:48:24.860Z,102135.09
2023-02-07T09:49:38.624Z,102122.00
2023-02-07T09:50:48.993Z,102130.06
2023-02-07T09:51:56.778Z,102121.09
2023-02-07T09:53:04.968Z,102127.97
2023-02-07T09:54:13.836Z,102132.00
2023-02-07T09:55:22.355Z,102134.91
2023-02-07T09:56:29.421Z,102136.31
2023-02-07T09:57:38.141Z,102129.41
2023-02-07T09:58:44.729Z,102122.59
2023-02-07T09:59:54.720Z,102117.31
2023-02-07T10:01:04.323Z,102127.56
2023-02-07T10:02:28.775Z,102122.06
2023-02-07T10:03:36.523Z,102118.03
2023-02-07T10:04:43.273Z,102121.91
2023-02-07T10:05:51.117Z,102120.53
2023-02-07T10:06:58.598Z,102116.84
2023-02-07T10:08:02.228Z,102114.25
2023-02-07T10:09:12.143Z,102109.91
2023-02-07T10:10:17.483Z,102104.72
2023-02-07T10:11:34.581Z,102105.19
2023-02-07T10:12:55.226Z,102111.81
2023-02-07T10:14:12.978Z,102108.88
2023-02-07T10:15:39.795Z,102111.16
2023-02-07T10:16:56.784Z,102125.97
2023-02-07T10:18:34.111Z,102121.31
2023-02-07T10:19:50.580Z,102124.59
2023-02-07T10:21:00.352Z,102114.41
2023-02-07T10:22:19.017Z,102112.41
2023-02-07T10:23:36.044Z,102121.31
2023-02-07T10:25:04.797Z,102112.56
2023-02-07T10:26:18.682Z,102119.28
2023-02-07T10:27:31.088Z,102116.13
2023-02-07T10:29:07.976Z,102121.19
2023-02-07T10:30:17.791Z,102105.44
2023-02-07T10:31:24.691Z,102098.59
2023-02-07T10:32:33.444Z,102099.19
2023-02-07T10:33:42.313Z,102100.91
2023-02-07T10:34:49.389Z,102101.84
2023-02-07T10:35:54.914Z,102108.94
2023-02-07T10:37:00.374Z,102098.09
2023-02-07T10:38:10.997Z,102095.84
2023-02-07T10:39:19.683Z,102100.75
2023-02-07T10:40:27.726Z,102104.38
2023-02-07T10:41:38.411Z,102113.22
2023-02-07T10:42:47.522Z,102100.84
2023-02-07T10:43:53.900Z,102106.84
2023-02-07T10:44:57.902Z,102107.50
2023-02-07T10:46:06.369Z,102114.19
2023-02-07T10:47:15.948Z,102108.13
2023-02-07T10:48:20.243Z,102111.88
2023-02-07T10:49:26.196Z,102126.22
2023-02-07T10:50:30.902Z,102124.44
2023-02-07T10:51:37.388Z,102108.88
2023-02-07T10:52:45.798Z,102109.88
2023-02-07T10:54:02.219Z,102118.44
2023-02-07T10:55:09.603Z,102131.91
2023-02-07T10:56:18.277Z,102133.09
2023-02-07T10:57:23.459Z,102135.50
2023-02-07T10:58:39.530Z,102145.06
2023-02-07T10:59:46.790Z,102140.31
2023-02-07T11:00:52.995Z,102133.94
2023-02-07T11:01:56.458Z,102135.09
2023-02-07T11:03:04.375Z,102146.25
2023-02-07T11:04:25.081Z,102141.03
2023-02-07T11:05:32.336Z,102140.41
2023-02-07T11:06:36.522Z,102146.75
2023-02-07T11:07:47.384Z,102137.63
2023-02-07T11:08:52.727Z,102131.91
2023-02-07T11:10:16.819Z,102151.53
2023-02-07T11:11:32.102Z,102138.28
2023-02-07T11:12:36.039Z,102153.06
2023-02-07T11:13:49.537Z,102151.06
2023-02-07T11:15:02.784Z,102147.78
2023-02-07T11:16:10.213Z,102150.19
2023-02-07T11:17:22.086Z,102145.94
2023-02-07T11:18:31.262Z,102141.31
2023-02-07T11:19:35.368Z,102149.00
2023-02-07T11:20:41.334Z,102140.22
2023-02-07T11:21:46.634Z,102147.94
2023-02-07T11:22:53.300Z,102147.97
2023-02-07T11:24:02.360Z,102142.75
2023-02-07T11:25:09.292Z,102135.78
2023-02-07T11:26:13.188Z,102134.22
2023-02-07T11:27:19.893Z,102128.53
2023-02-07T11:28:27.006Z,102129.63
2023-02-07T11:29:33.629Z,102144.16
2023-02-07T11:30:39.068Z,102132.34
2023-02-07T11:31:46.169Z,102144.44
2023-02-07T11:32:57.304Z,102133.47
2023-02-07T11:34:11.021Z,102128.44
2023-02-07T11:35:22.571Z,102125.63
2023-02-07T11:36:33.083Z,102120.44
2023-02-07T11:37:36.971Z,102116.88
2023-02-07T11:38:43.162Z,102117.19
2023-02-07T11:39:51.063Z,102121.13
2023-02-07T11:41:02.126Z,102127.25
2023-02-07T11:42:14.026Z,102119.53
2023-02-07T11:43:20.148Z,102133.00
2023-02-07T11:44:29.045Z,102131.66
2023-02-07T11:45:35.799Z,102135.88
2023-02-07T11:46:42.806Z,102135.50
2023-02-07T11:47:49.875Z,102118.09
2023-02-07T11:48:57.689Z,102126.38
2023-02-07T11:50:05.541Z,102132.56
2023-02-07T11:51:10.384Z,102129.97
2023-02-07T11:52:15.029Z,102124.03
2023-02-07T11:53:24.785Z,102137.22
2023-02-07T11:54:29.648Z,102119.09
2023-02-07T11:55:37.700Z,102126.34
2023-02-07T11:56:43.946Z,102123.31
2023-02-07T11:57:47.849Z,102112.81
2023-02-07T11:58:52.469Z,102113.63
2023-02-07T12:00:08.338Z,102109.28
2023-02-07T12:01:18.857Z,102111.34
2023-02-07T12:02:26.532Z,102106.78
2023-02-07T12:03:34.176Z,102108.75
2023-02-07T12:04:40.495Z,102116.81
2023-02-07T12:05:45.413Z,102105.47
2023-02-07T12:06:53.894Z,102102.09
2023-02-07T12:08:03.443Z,102100.00
2023-02-07T12:09:14.111Z,102101.91
2023-02-07T12:10:23.128Z,102100.56
2023-02-07T12:11:36.400Z,102104.69
2023-02-07T12:12:45.210Z,102102.09
2023-02-07T12:13:52.787Z,102090.69
2023-02-07T12:14:59.398Z,102100.13
2023-02-07T12:16:08.592Z,102088.09
2023-02-07T12:17:18.461Z,102080.09
2023-02-07T12:18:30.350Z,102077.59
2023-02-07T12:19:36.597Z,102077.59
2023-02-07T12:20:45.956Z,102072.03
2023-02-07T12:21:58.499Z,102078.88
2023-02-07T12:23:28.182Z,102078.59
2023-02-07T12:24:36.886Z,102090.59
2023-02-07T12:25:46.309Z,102088.81
2023-02-07T12:26:57.127Z,102086.66
2023-02-07T12:28:06.124Z,102090.59
2023-02-07T12:29:27.661Z,102086.97
2023-02-07T12:30:36.157Z,102089.38
2023-02-07T12:31:48.672Z,102084.63
2023-02-07T12:32:59.048Z,102081.00
2023-02-07T12:34:11.101Z,102086.53
2023-02-07T12:35:21.466Z,102088.31
2023-02-07T12:36:31.453Z,102102.31
2023-02-07T12:37:43.926Z,102084.53
2023-02-07T12:38:53.306Z,102085.50
2023-02-07T12:40:04.520Z,102093.03
2023-02-07T12:41:15.595Z,102095.41